createdAt,value
2019-01-30T00:00:45.724Z,6.70
2019-01-30T00:03:13.436Z,7.65
2019-01-30T00:05:41.051Z,7.85
2019-01-30T00:08:08.739Z,7.03
2019-01-30T00:10:36.429Z,7.30
2019-01-30T00:13:04.101Z,7.17
2019-01-30T00:15:31.896Z,7.40
2019-01-30T00:17:59.543Z,7.35
2019-01-30T00:20:27.256Z,8.23
2019-01-30T00:22:54.960Z,7.72
2019-01-30T00:25:24.050Z,7.17
2019-01-30T00:27:51.832Z,7.40
2019-01-30T00:30:19.799Z,7.28
2019-01-30T00:32:47.454Z,7.30
2019-01-30T00:35:15.138Z,7.30
2019-01-30T00:37:42.816Z,7.25
2019-01-30T00:40:11.013Z,7.55
2019-01-30T00:42:38.797Z,7.70
2019-01-30T00:45:09.045Z,7.50
2019-01-30T00:47:36.696Z,7.85
2019-01-30T00:50:05.861Z,8.13
2019-01-30T00:52:33.564Z,7.65
2019-01-30T00:55:01.200Z,7.75
2019-01-30T00:57:28.886Z,8.13
2019-01-30T00:59:56.525Z,7.60
2019-01-30T01:02:24.207Z,8.28
2019-01-30T01:04:51.848Z,9.33
2019-01-30T01:07:19.636Z,8.70
2019-01-30T01:09:47.323Z,9.70
2019-01-30T01:12:15.127Z,9.30
2019-01-30T01:14:42.786Z,10.25
2019-01-30T01:17:10.445Z,9.40
2019-01-30T01:19:38.176Z,10.25
2019-01-30T01:22:05.825Z,9.73
2019-01-30T01:24:33.521Z,10.03
2019-01-30T01:27:01.167Z,8.95
2019-01-30T01:29:28.849Z,9.83
2019-01-30T01:31:56.538Z,9.88
2019-01-30T01:34:24.267Z,9.78
2019-01-30T01:36:51.926Z,9.93
2019-01-30T01:39:19.544Z,9.78
2019-01-30T01:41:47.232Z,9.48
2019-01-30T01:44:14.898Z,9.38
2019-01-30T01:46:42.592Z,9.35
2019-01-30T01:49:10.357Z,9.90
2019-01-30T01:51:37.997Z,8.60
2019-01-30T01:54:05.652Z,9.73
2019-01-30T01:56:33.311Z,10.00
2019-01-30T01:59:00.971Z,10.23
2019-01-30T02:01:28.673Z,9.58
2019-01-30T02:03:56.389Z,9.48
2019-01-30T02:06:24.045Z,10.40
2019-01-30T02:08:51.735Z,9.50
2019-01-30T02:11:19.414Z,8.38
2019-01-30T02:13:47.115Z,9.65
2019-01-30T02:16:14.823Z,10.28
2019-01-30T02:18:42.544Z,9.30
2019-01-30T02:21:10.183Z,9.25
2019-01-30T02:23:37.814Z,8.55
2019-01-30T02:26:05.508Z,8.70
2019-01-30T02:28:33.122Z,9.08
2019-01-30T02:31:00.811Z,9.00
2019-01-30T02:33:28.418Z,8.48
2019-01-30T02:35:56.075Z,7.28
2019-01-30T02:38:23.740Z,8.90
2019-01-30T02:40:51.395Z,8.43
2019-01-30T02:43:19.060Z,8.40
2019-01-30T02:45:46.714Z,9.90
2019-01-30T02:48:14.362Z,9.70
2019-01-30T02:50:42.015Z,9.25
2019-01-30T02:53:09.683Z,9.48
2019-01-30T02:55:37.447Z,8.73
2019-01-30T02:58:05.199Z,9.08
2019-01-30T03:00:34.567Z,9.43
2019-01-30T03:03:02.245Z,10.10
2019-01-30T03:05:30.399Z,9.83
2019-01-30T03:07:58.071Z,9.45
2019-01-30T03:10:25.717Z,10.28
2019-01-30T03:12:53.358Z,10.20
2019-01-30T03:15:22.537Z,8.93
2019-01-30T03:17:50.428Z,9.13
2019-01-30T03:20:22.879Z,9.35
2019-01-30T03:22:50.555Z,9.23
2019-01-30T03:25:18.642Z,9.70
2019-01-30T03:27:46.272Z,9.00
2019-01-30T03:30:18.984Z,9.35
2019-01-30T03:32:46.671Z,9.68
2019-01-30T03:35:14.325Z,9.45
2019-01-30T03:37:41.999Z,9.55
2019-01-30T03:40:12.011Z,9.65
2019-01-30T03:42:39.664Z,8.98
2019-01-30T03:45:08.044Z,8.95
2019-01-30T03:47:35.763Z,9.38
2019-01-30T03:50:03.903Z,8.80
2019-01-30T03:52:31.527Z,8.85
2019-01-30T03:54:59.184Z,8.40
2019-01-30T03:57:28.917Z,8.90
2019-01-30T03:59:56.327Z,9.55
2019-01-30T04:02:23.978Z,8.83
2019-01-30T04:04:51.651Z,8.60
2019-01-30T04:07:19.337Z,9.40
2019-01-30T04:09:47.034Z,8.95
2019-01-30T04:12:14.668Z,7.70
2019-01-30T04:14:42.334Z,8.10
2019-01-30T04:17:10.026Z,7.58
2019-01-30T04:19:37.719Z,7.33
2019-01-30T04:22:05.460Z,6.97
2019-01-30T04:24:33.091Z,8.68
2019-01-30T04:27:00.761Z,8.85
2019-01-30T04:29:28.443Z,8.15
2019-01-30T04:31:56.061Z,7.37
2019-01-30T04:34:23.711Z,8.43
2019-01-30T04:36:51.372Z,8.10
2019-01-30T04:39:19.039Z,8.50
2019-01-30T04:41:46.716Z,8.75
2019-01-30T04:44:14.401Z,7.47
2019-01-30T04:46:42.044Z,7.62
2019-01-30T04:49:09.664Z,7.22
2019-01-30T04:51:37.322Z,7.33
2019-01-30T04:54:05.002Z,6.47
2019-01-30T04:56:32.631Z,7.03
2019-01-30T04:59:00.322Z,6.83
2019-01-30T05:01:28.411Z,7.22
2019-01-30T05:03:56.015Z,7.28
2019-01-30T05:06:23.761Z,6.83
2019-01-30T05:08:51.364Z,7.53
2019-01-30T05:11:19.024Z,6.87
2019-01-30T05:13:46.689Z,7.28
2019-01-30T05:16:14.370Z,6.30
2019-01-30T05:18:41.975Z,7.33
2019-01-30T05:21:09.727Z,8.00
2019-01-30T05:23:37.362Z,6.87
2019-01-30T05:26:05.134Z,5.92
2019-01-30T05:28:32.795Z,6.62
2019-01-30T05:31:00.441Z,7.33
2019-01-30T05:33:28.098Z,7.15
2019-01-30T05:35:55.723Z,6.67
2019-01-30T05:38:23.380Z,6.60
2019-01-30T05:40:51.025Z,6.28
2019-01-30T05:43:18.699Z,6.37
2019-01-30T05:45:46.510Z,6.45
2019-01-30T05:48:14.160Z,6.72
2019-01-30T05:50:41.806Z,6.12
2019-01-30T05:53:09.867Z,6.72
2019-01-30T05:55:40.148Z,6.10
2019-01-30T05:58:21.265Z,6.37
2019-01-30T06:00:49.018Z,5.58
2019-01-30T06:03:16.643Z,6.92
2019-01-30T06:05:44.298Z,6.22
2019-01-30T06:08:11.952Z,5.92
2019-01-30T06:10:39.615Z,8.20
2019-01-30T06:13:07.258Z,5.25
2019-01-30T06:15:34.903Z,5.55
2019-01-30T06:18:02.571Z,5.67
2019-01-30T06:20:30.320Z,6.15
2019-01-30T06:22:58.184Z,5.62
2019-01-30T06:25:25.916Z,5.53
2019-01-30T06:27:53.572Z,5.28
2019-01-30T06:30:21.906Z,5.47
2019-01-30T06:32:49.673Z,5.75
2019-01-30T06:35:17.516Z,4.55
2019-01-30T06:37:45.242Z,6.22
2019-01-30T06:40:32.454Z,6.00
2019-01-30T06:43:02.400Z,6.50
2019-01-30T06:45:29.719Z,5.75
2019-01-30T06:47:57.375Z,6.22
2019-01-30T06:50:25.014Z,7.42
2019-01-30T06:52:52.810Z,7.15
2019-01-30T06:55:20.428Z,7.22
2019-01-30T06:57:48.051Z,8.13
2019-01-30T07:00:20.483Z,7.78
2019-01-30T07:02:48.246Z,7.75
2019-01-30T07:05:15.894Z,7.35
2019-01-30T07:07:43.522Z,8.13
2019-01-30T07:10:17.440Z,7.40
2019-01-30T07:12:45.095Z,8.63
2019-01-30T07:15:12.860Z,7.22
2019-01-30T07:17:40.567Z,7.95
2019-01-30T07:20:08.493Z,7.62
2019-01-30T07:22:36.195Z,8.25
2019-01-30T07:25:04.656Z,8.10
2019-01-30T07:27:32.347Z,8.00
2019-01-30T07:30:00.027Z,7.00
2019-01-30T07:32:27.641Z,7.60
2019-01-30T07:34:55.287Z,8.08
2019-01-30T07:37:22.938Z,8.13
2019-01-30T07:39:50.587Z,8.50
2019-01-30T07:42:18.347Z,6.42
2019-01-30T07:44:50.687Z,8.18
2019-01-30T07:47:15.402Z,8.68
2019-01-30T07:49:43.058Z,8.00
2019-01-30T07:52:10.817Z,8.03
2019-01-30T07:54:38.464Z,6.35
2019-01-30T07:57:06.118Z,7.75
2019-01-30T07:59:33.768Z,9.68
2019-01-30T08:02:01.429Z,10.68
2019-01-30T08:04:29.180Z,9.43
2019-01-30T08:06:56.855Z,10.32
2019-01-30T08:09:24.488Z,9.55
2019-01-30T08:11:52.156Z,9.70
2019-01-30T08:14:19.807Z,9.05
2019-01-30T08:16:48.094Z,11.60
2019-01-30T08:19:15.852Z,10.65
2019-01-30T08:21:43.533Z,9.13
2019-01-30T08:24:11.220Z,10.00
2019-01-30T08:26:39.053Z,10.38
2019-01-30T08:29:07.113Z,10.18
2019-01-30T08:31:35.021Z,10.25
2019-01-30T08:34:02.826Z,10.13
2019-01-30T08:36:30.437Z,10.98
2019-01-30T08:38:58.134Z,11.60
2019-01-30T08:41:25.758Z,11.45
2019-01-30T08:43:53.408Z,10.28
2019-01-30T08:46:21.073Z,9.28
2019-01-30T08:48:48.682Z,10.40
2019-01-30T08:51:16.367Z,10.25
2019-01-30T08:53:44.016Z,10.63
2019-01-30T08:56:11.816Z,11.05
2019-01-30T08:58:39.463Z,10.48
2019-01-30T09:01:07.166Z,11.80
2019-01-30T09:03:34.770Z,10.13
2019-01-30T09:06:02.451Z,10.13
2019-01-30T09:08:30.101Z,12.00
2019-01-30T09:10:57.763Z,11.95
2019-01-30T09:13:25.706Z,11.90
2019-01-30T09:15:53.505Z,8.23
2019-01-30T09:18:21.191Z,11.03
2019-01-30T09:20:48.859Z,11.38
2019-01-30T09:23:16.596Z,12.53
2019-01-30T09:25:44.199Z,12.03
2019-01-30T09:28:11.848Z,10.15
2019-01-30T09:30:39.467Z,11.45
2019-01-30T09:33:09.486Z,10.95
2019-01-30T09:35:37.170Z,11.65
2019-01-30T09:38:05.182Z,11.90
2019-01-30T09:40:32.847Z,12.18
2019-01-30T09:43:00.591Z,11.65
2019-01-30T09:45:28.224Z,11.78
2019-01-30T09:47:55.923Z,10.93
2019-01-30T09:50:23.694Z,13.18
2019-01-30T09:52:51.634Z,9.98
2019-01-30T09:55:19.248Z,11.10
2019-01-30T09:57:46.910Z,8.33
2019-01-30T10:00:17.772Z,13.30
2019-01-30T10:02:45.452Z,12.47
2019-01-30T10:05:13.483Z,11.45
2019-01-30T10:07:41.179Z,10.25
2019-01-30T10:10:12.582Z,13.05
2019-01-30T10:12:40.257Z,11.85
2019-01-30T10:15:09.090Z,12.28
2019-01-30T10:17:36.750Z,12.55
2019-01-30T10:20:05.939Z,11.05
2019-01-30T10:22:33.663Z,10.00
2019-01-30T10:25:01.281Z,10.53
2019-01-30T10:27:29.029Z,11.47
2019-01-30T10:29:58.781Z,10.93
2019-01-30T10:32:26.196Z,10.47
2019-01-30T10:34:53.849Z,11.70
2019-01-30T10:37:21.579Z,11.27
2019-01-30T10:39:49.204Z,11.30
2019-01-30T10:42:16.847Z,9.10
2019-01-30T10:44:44.493Z,10.50
2019-01-30T10:47:12.120Z,10.37
2019-01-30T10:49:39.787Z,11.07
2019-01-30T10:52:07.431Z,9.83
2019-01-30T10:54:35.181Z,10.83
2019-01-30T10:57:02.792Z,10.53
2019-01-30T10:59:30.430Z,11.17
2019-01-30T11:01:58.120Z,10.80
2019-01-30T11:04:25.735Z,10.47
2019-01-30T11:06:53.409Z,10.57
2019-01-30T11:09:21.040Z,9.67
2019-01-30T11:11:48.750Z,10.73
2019-01-30T11:14:16.374Z,11.00
2019-01-30T11:16:44.072Z,9.80
2019-01-30T11:19:11.759Z,10.37
2019-01-30T11:21:39.414Z,10.53
2019-01-30T11:24:07.136Z,9.83
2019-01-30T11:26:36.472Z,10.57
2019-01-30T11:29:04.292Z,9.77
2019-01-30T11:31:31.940Z,9.73
2019-01-30T11:34:07.347Z,9.60
2019-01-30T11:36:29.067Z,9.27
2019-01-30T11:38:56.770Z,10.23
2019-01-30T11:41:24.422Z,10.47
2019-01-30T11:43:52.117Z,10.97
2019-01-30T11:46:19.759Z,10.47
2019-01-30T11:48:56.236Z,10.10
2019-01-30T11:51:18.096Z,9.40
2019-01-30T11:53:45.739Z,8.73
2019-01-30T11:56:13.403Z,9.00
2019-01-30T11:58:41.075Z,8.97
2019-01-30T12:01:08.818Z,7.93
2019-01-30T12:03:36.469Z,8.47
2019-01-30T12:06:04.389Z,8.73
2019-01-30T12:08:32.049Z,7.63
2019-01-30T12:10:59.711Z,7.87
2019-01-30T12:13:27.371Z,7.93
2019-01-30T12:15:55.028Z,7.47
2019-01-30T12:18:22.635Z,6.93
2019-01-30T12:20:51.917Z,7.67
2019-01-30T12:23:19.798Z,6.97
2019-01-30T12:25:47.464Z,7.30
2019-01-30T12:28:15.132Z,7.60
2019-01-30T12:30:42.783Z,6.77
2019-01-30T12:33:10.573Z,7.90
2019-01-30T12:35:38.219Z,7.20
2019-01-30T12:38:05.908Z,7.93
2019-01-30T12:40:33.521Z,7.43
2019-01-30T12:43:01.152Z,7.97
2019-01-30T12:45:31.062Z,8.90
2019-01-30T12:47:59.027Z,8.73
2019-01-30T12:50:27.010Z,10.20
2019-01-30T12:52:54.638Z,8.43
2019-01-30T12:55:22.333Z,6.60
2019-01-30T12:57:49.955Z,8.37
2019-01-30T13:00:20.127Z,8.13
2019-01-30T13:02:47.972Z,6.40
2019-01-30T13:05:15.923Z,6.57
2019-01-30T13:07:43.588Z,6.67
2019-01-30T13:10:11.463Z,7.63
2019-01-30T13:12:39.129Z,6.97
2019-01-30T13:15:08.528Z,7.67
2019-01-30T13:17:36.188Z,6.33
2019-01-30T13:20:06.526Z,6.87
2019-01-30T13:22:34.256Z,7.30
2019-01-30T13:25:01.926Z,7.30
2019-01-30T13:27:29.571Z,7.20
2019-01-30T13:29:57.206Z,6.03
2019-01-30T13:32:24.971Z,6.67
2019-01-30T13:34:52.604Z,7.37
2019-01-30T13:37:20.223Z,8.37
2019-01-30T13:39:47.902Z,7.33
2019-01-30T13:42:15.527Z,7.93
2019-01-30T13:44:43.220Z,7.37
2019-01-30T13:47:10.955Z,7.90
2019-01-30T13:49:38.694Z,7.93
2019-01-30T13:52:06.353Z,7.37
2019-01-30T13:54:33.979Z,7.20
2019-01-30T13:57:01.633Z,8.20
2019-01-30T13:59:29.298Z,8.47
2019-01-30T14:01:56.957Z,7.17
2019-01-30T14:04:24.576Z,8.63
2019-01-30T14:06:52.452Z,8.33
2019-01-30T14:09:20.068Z,8.30
2019-01-30T14:11:47.751Z,10.87
2019-01-30T14:14:15.341Z,10.53
2019-01-30T14:16:43.046Z,8.38
2019-01-30T14:19:10.715Z,9.43
2019-01-30T14:21:38.490Z,10.27
2019-01-30T14:24:06.118Z,10.50
2019-01-30T14:26:33.934Z,10.50
2019-01-30T14:29:01.532Z,9.67
2019-01-30T14:31:29.274Z,11.33
2019-01-30T14:33:57.173Z,9.67
2019-01-30T14:36:26.178Z,10.30
2019-01-30T14:38:53.855Z,9.87
2019-01-30T14:41:21.612Z,9.77
2019-01-30T14:43:49.264Z,6.47
2019-01-30T14:46:16.928Z,9.10
2019-01-30T14:48:44.629Z,10.90
2019-01-30T14:51:12.266Z,9.30
2019-01-30T14:53:39.900Z,11.37
2019-01-30T14:56:07.531Z,10.47
2019-01-30T14:58:35.163Z,8.93
2019-01-30T15:01:03.809Z,11.00
2019-01-30T15:03:31.378Z,10.23
2019-01-30T15:05:59.058Z,10.07
2019-01-30T15:08:26.727Z,10.20
2019-01-30T15:10:54.433Z,11.10
2019-01-30T15:13:22.060Z,9.97
2019-01-30T15:15:49.744Z,9.80
2019-01-30T15:18:17.383Z,13.60
2019-01-30T15:20:44.996Z,9.20
2019-01-30T15:23:12.702Z,9.63
2019-01-30T15:25:40.376Z,8.97
2019-01-30T15:28:08.466Z,9.48
2019-01-30T15:30:44.227Z,8.83
2019-01-30T15:33:12.106Z,9.33
2019-01-30T15:35:39.823Z,8.37
2019-01-30T15:38:09.466Z,8.10
2019-01-30T15:40:37.190Z,8.13
2019-01-30T15:43:05.044Z,7.67
2019-01-30T15:45:32.938Z,8.90
2019-01-30T15:48:00.642Z,9.30
2019-01-30T15:50:29.814Z,8.23
2019-01-30T15:52:58.715Z,9.67
2019-01-30T15:55:26.390Z,8.97
2019-01-30T15:57:56.432Z,8.80
2019-01-30T16:00:29.373Z,9.43
2019-01-30T16:02:56.527Z,9.00
2019-01-30T16:05:24.216Z,9.60
2019-01-30T16:07:51.948Z,9.83
2019-01-30T16:10:19.688Z,9.27
2019-01-30T16:12:47.309Z,9.13
2019-01-30T16:15:22.659Z,8.80
2019-01-30T16:17:50.315Z,9.47
2019-01-30T16:20:18.160Z,10.17
2019-01-30T16:22:45.844Z,8.30
2019-01-30T16:25:13.596Z,9.47
2019-01-30T16:27:41.293Z,8.63
2019-01-30T16:30:12.753Z,9.20
2019-01-30T16:32:40.488Z,10.30
2019-01-30T16:35:10.619Z,9.53
2019-01-30T16:37:38.263Z,9.47
2019-01-30T16:40:07.555Z,8.77
2019-01-30T16:42:35.215Z,8.77
2019-01-30T16:45:03.518Z,8.87
2019-01-30T16:47:31.215Z,8.18
2019-01-30T16:49:58.902Z,9.60
2019-01-30T16:52:26.788Z,10.23
2019-01-30T16:54:54.464Z,9.70
2019-01-30T16:57:22.128Z,8.27
2019-01-30T16:59:49.751Z,9.13
2019-01-30T17:02:17.415Z,8.53
2019-01-30T17:04:45.222Z,9.20
2019-01-30T17:07:12.920Z,9.55
2019-01-30T17:09:40.532Z,10.47
2019-01-30T17:12:08.189Z,9.50
2019-01-30T17:14:35.839Z,11.57
2019-01-30T17:17:03.603Z,10.90
2019-01-30T17:19:31.280Z,10.90
2019-01-30T17:21:58.943Z,12.17
2019-01-30T17:24:26.723Z,11.60
2019-01-30T17:26:54.372Z,11.10
2019-01-30T17:29:22.769Z,11.13
2019-01-30T17:31:50.636Z,11.17
2019-01-30T17:34:18.320Z,8.98
2019-01-30T17:36:45.986Z,10.63
2019-01-30T17:39:13.627Z,11.00
2019-01-30T17:41:41.287Z,11.73
2019-01-30T17:44:08.922Z,9.90
2019-01-30T17:46:36.563Z,9.60
2019-01-30T17:49:04.223Z,9.43
2019-01-30T17:51:31.955Z,9.33
2019-01-30T17:53:59.702Z,10.13
2019-01-30T17:56:27.346Z,9.20
2019-01-30T17:58:55.087Z,9.10
2019-01-30T18:01:22.713Z,9.00
2019-01-30T18:03:50.343Z,9.10
2019-01-30T18:06:29.201Z,9.83
2019-01-30T18:08:47.603Z,9.27
2019-01-30T18:11:15.216Z,8.07
2019-01-30T18:13:45.155Z,9.70
2019-01-30T18:16:12.435Z,10.07
2019-01-30T18:18:40.062Z,10.20
2019-01-30T18:21:07.759Z,10.17
2019-01-30T18:23:35.415Z,9.33
2019-01-30T18:26:03.574Z,9.77
2019-01-30T18:28:31.212Z,8.90
2019-01-30T18:30:58.859Z,9.77
2019-01-30T18:33:26.516Z,10.13
2019-01-30T18:35:54.975Z,10.47
2019-01-30T18:38:22.611Z,12.97
2019-01-30T18:40:50.251Z,14.37
2019-01-30T18:43:17.948Z,12.63
2019-01-30T18:45:45.562Z,13.10
2019-01-30T18:48:13.232Z,11.60
2019-01-30T18:50:40.863Z,12.67
2019-01-30T18:53:08.535Z,12.63
2019-01-30T18:55:36.287Z,12.77
2019-01-30T18:58:04.509Z,12.63
2019-01-30T19:00:35.042Z,14.27
2019-01-30T19:03:04.255Z,13.43
2019-01-30T19:05:32.320Z,13.53
2019-01-30T19:07:59.938Z,13.63
2019-01-30T19:10:27.619Z,12.40
2019-01-30T19:12:55.427Z,12.03
2019-01-30T19:15:23.984Z,11.13
2019-01-30T19:17:51.631Z,11.70
2019-01-30T19:20:30.593Z,12.57
2019-01-30T19:22:58.384Z,12.37
2019-01-30T19:25:26.030Z,11.07
2019-01-30T19:27:56.071Z,10.67
2019-01-30T19:30:27.882Z,10.37
2019-01-30T19:32:55.628Z,8.90
2019-01-30T19:35:23.403Z,10.33
2019-01-30T19:37:51.515Z,8.97
2019-01-30T19:40:19.316Z,9.10
2019-01-30T19:42:46.986Z,9.23
2019-01-30T19:45:15.774Z,10.37
2019-01-30T19:47:43.471Z,10.03
2019-01-30T19:50:14.179Z,9.17
2019-01-30T19:52:41.868Z,10.37
2019-01-30T19:55:10.560Z,10.97
2019-01-30T19:57:38.304Z,10.20
2019-01-30T20:00:30.857Z,9.03
2019-01-30T20:02:59.009Z,8.87
2019-01-30T20:05:26.691Z,9.27
2019-01-30T20:07:54.563Z,8.88
2019-01-30T20:10:24.807Z,8.87
2019-01-30T20:12:52.451Z,8.87
2019-01-30T20:15:20.653Z,10.37
2019-01-30T20:17:48.371Z,9.67
2019-01-30T20:20:16.518Z,9.60
2019-01-30T20:22:44.283Z,10.03
2019-01-30T20:25:17.163Z,9.07
2019-01-30T20:27:44.890Z,8.47
2019-01-30T20:30:15.201Z,8.90
2019-01-30T20:32:42.842Z,8.57
2019-01-30T20:35:11.498Z,8.83
2019-01-30T20:37:39.213Z,9.87
2019-01-30T20:40:10.696Z,9.30
2019-01-30T20:42:38.316Z,8.70
2019-01-30T20:45:07.880Z,9.47
2019-01-30T20:47:35.488Z,9.87
2019-01-30T20:50:04.356Z,10.23
2019-01-30T20:52:32.017Z,11.40
2019-01-30T20:55:00.213Z,9.33
2019-01-30T20:57:27.948Z,9.77
2019-01-30T20:59:55.611Z,9.87
2019-01-30T21:02:23.361Z,9.67
2019-01-30T21:04:51.379Z,10.13
2019-01-30T21:07:19.134Z,11.10
2019-01-30T21:09:46.852Z,10.57
2019-01-30T21:12:14.579Z,9.50
2019-01-30T21:14:42.184Z,10.43
2019-01-30T21:17:09.859Z,11.40
2019-01-30T21:19:37.502Z,11.30
2019-01-30T21:22:05.171Z,13.27
2019-01-30T21:24:32.816Z,12.07
2019-01-30T21:27:00.473Z,11.10
2019-01-30T21:29:28.263Z,10.13
2019-01-30T21:31:55.888Z,11.23
2019-01-30T21:34:23.544Z,10.63
2019-01-30T21:36:51.330Z,13.67
2019-01-30T21:39:18.995Z,13.57
2019-01-30T21:41:46.612Z,13.10
2019-01-30T21:44:14.274Z,13.83
2019-01-30T21:46:42.034Z,14.63
2019-01-30T21:49:09.685Z,15.27
2019-01-30T21:51:37.350Z,17.87
2019-01-30T21:54:04.989Z,17.47
2019-01-30T21:56:32.645Z,17.13
2019-01-30T21:59:00.288Z,19.33
2019-01-30T22:01:27.939Z,20.80
2019-01-30T22:03:55.567Z,17.77
2019-01-30T22:06:23.258Z,19.27
2019-01-30T22:08:50.919Z,20.73
2019-01-30T22:11:18.591Z,19.40
2019-01-30T22:13:46.243Z,18.17
2019-01-30T22:16:13.903Z,23.80
2019-01-30T22:18:41.587Z,18.80
2019-01-30T22:21:09.238Z,20.47
2019-01-30T22:23:36.876Z,20.40
2019-01-30T22:26:04.607Z,18.93
2019-01-30T22:28:32.287Z,17.97
2019-01-30T22:30:59.903Z,18.47
2019-01-30T22:33:27.609Z,17.90
2019-01-30T22:35:55.225Z,19.63
2019-01-30T22:38:22.928Z,18.33
2019-01-30T22:40:50.574Z,19.37
2019-01-30T22:43:18.278Z,21.00
2019-01-30T22:45:45.908Z,19.97
2019-01-30T22:48:13.559Z,18.10
2019-01-30T22:50:41.211Z,18.13
2019-01-30T22:53:08.876Z,17.37
2019-01-30T22:55:36.511Z,17.50
2019-01-30T22:58:04.318Z,18.20
2019-01-30T23:01:04.999Z,18.13
2019-01-30T23:03:40.377Z,17.90
2019-01-30T23:06:31.624Z,18.57
2019-01-30T23:09:39.603Z,18.93
2019-01-30T23:12:34.892Z,18.40
2019-01-30T23:15:09.544Z,19.60
2019-01-30T23:18:15.783Z,16.87
2019-01-30T23:20:47.964Z,17.60
2019-01-30T23:23:44.980Z,17.63
2019-01-30T23:26:38.556Z,18.77
2019-01-30T23:29:36.849Z,17.40
2019-01-30T23:32:53.965Z,17.40
2019-01-30T23:36:05.374Z,18.27
2019-01-30T23:39:32.526Z,19.13
2019-01-30T23:42:34.248Z,18.45
2019-01-30T23:45:36.910Z,18.35
2019-01-30T23:48:55.367Z,18.67
2019-01-30T23:52:12.764Z,18.80
2019-01-30T23:54:52.834Z,20.00
2019-01-30T23:58:09.899Z,18.85
